Azure — ZCEE2 — position and weather

sailwx.info

Track history (hours):
 
Tides and Currents Weather Stations Pressure Air Temp Water Temp Dewpoint Dewpoint Depression Visibility Wind Speed Wind Dir Waves Ship Positions

Azure

Last reported at 2018-Aug-14 21:00 UTC. Time now 2018-Aug-14 21:10 UTC.
Position N 35°56' W 005°29'.

Length 289 m; draft 8.7 m.

Type: Passenger vessel. MMSI: 310610000.

Date/timePositionNaut miles runAvg speedWind from/ knotsBaromVisibWave heightAir tempDewpointWater temp
2018-Aug-14 21:00N 35°56' W 005°29'2618.4
2018-Aug-14 19:36N 35°54' W 006°01'319.9
2018-Aug-14 19:26N 35°54' W 006°05'919.6
2018-Aug-14 19:00N 35°55' W 006°16'3029.9
2018-Aug-14 18:00N 36°24' W 006°24'8 6.0 260 / 131015.6 24.018.524.0
2018-Aug-14 16:39N 36°32' W 006°22'214.9
2018-Aug-14 16:30N 36°33' W 006°20'2 0.2
2018-Aug-14 06:29N 36°32' W 006°17'10 7.7
2018-Aug-14 05:09N 36°34' W 006°30'317.9
2018-Aug-14 04:59N 36°34' W 006°34'1018.3
2018-Aug-14 04:27N 36°33' W 006°46'4018.3
2018-Aug-14 02:16N 36°32' W 007°35'518.1
2018-Aug-14 01:58N 36°32' W 007°42'918.3
2018-Aug-14 01:28N 36°32' W 007°53'1018.7
2018-Aug-14 00:56N 36°32' W 008°06'918.7
2018-Aug-14 00:29N 36°31' W 008°16'918.4
2018-Aug-14 00:00N 36°31' W 008°27'1018.1
2018-Aug-13 23:26N 36°32' W 008°40'2918.6
2018-Aug-13 21:54N 36°35' W 009°16'819.5
2018-Aug-13 21:29N 36°40' W 009°23'918.8
2018-Aug-13 21:00N 36°47' W 009°31'918.8
2018-Aug-13 20:30N 36°55' W 009°36'1019.3
2018-Aug-13 19:59N 37°05' W 009°37'919.0
2018-Aug-13 19:30N 37°14' W 009°39'919.0
2018-Aug-13 19:00N 37°24' W 009°42'1018.9
2018-Aug-13 18:30N 37°33' W 009°44'919.0
2018-Aug-13 18:00N 37°42' W 009°47'918.7
2018-Aug-13 17:30N 37°51' W 009°50'918.9
2018-Aug-13 17:00N 38°00' W 009°52'3214.4
2018-Aug-13 17:00N 38°00' W 009°48'1122.5 340 / 191017.5 27.016.620.0
2018-Aug-13 16:30N 38°10' W 009°55'1021.0
2018-Aug-13 16:00N 38°20' W 009°58'1121.1
2018-Aug-13 15:30N 38°30' W 010°01'1121.3
2018-Aug-13 14:59N 38°41' W 010°04'1020.8
2018-Aug-13 14:30N 38°51' W 010°05'1020.7
2018-Aug-13 14:00N 39°01' W 010°06'1020.3
2018-Aug-13 13:30N 39°11' W 010°05'1420.7
2018-Aug-13 12:49N 39°26' W 010°04'16023.5
2018-Aug-13 06:00N 42°06' W 010°00'7214.4 310 / 181018.2 18.015.519.0
2018-Aug-13 01:00N 43°18' W 010°00'15522.2 290 / 161017.210.8 18.516.021.0
2018-Aug-12 18:00N 45°30' W 008°06'7114.2 270 / 271013.2 20.015.820.0
2018-Aug-12 13:00N 46°30' W 007°12'12322.7 270 / 251015.110.8 19.015.619.0
2018-Aug-12 07:33N 48°17' W 005°41'821.1
2018-Aug-12 07:09N 48°24' W 005°33'320.7
2018-Aug-12 06:59N 48°26' W 005°30'1019.9
2018-Aug-12 06:30N 48°34' W 005°21'918.4
2018-Aug-12 06:00N 48°41' W 005°12'917.8
2018-Aug-12 05:30N 48°47' W 005°02'917.3
2018-Aug-12 05:00N 48°52' W 004°51'815.3
2018-Aug-12 04:27N 48°58' W 004°42'2515.8
2018-Aug-12 02:54N 49°14' W 004°13'1017.5
2018-Aug-12 02:20N 49°20' W 004°02'818.5
2018-Aug-12 01:55N 49°25' W 003°53'1019.5
2018-Aug-12 01:24N 49°32' W 003°42'1220.1
2018-Aug-12 00:48N 49°40' W 003°28'620.3
2018-Aug-12 00:30N 49°44' W 003°21'1020.1
2018-Aug-12 00:00N 49°51' W 003°09'1019.8
2018-Aug-11 23:30N 49°57' W 002°58'1019.4
2018-Aug-11 23:01N 50°00' W 002°44'4016.7
2018-Aug-11 20:39N 50°17' W 001°48'415.4
2018-Aug-11 20:22N 50°19' W 001°42'1115.3
2018-Aug-11 19:41N 50°23' W 001°27'515.4
2018-Aug-11 19:21N 50°26' W 001°20'515.1
2018-Aug-11 19:01N 50°28' W 001°13'815.3
2018-Aug-11 18:30N 50°32' W 001°03'815.8
2018-Aug-11 18:00N 50°40' W 000°58'511.0
2018-Aug-11 17:31N 50°44' W 001°04'918.3
2018-Aug-11 17:00N 50°47' W 001°18'4 8.8
2018-Aug-11 16:30N 50°51' W 001°20'4 7.4
2018-Aug-11 16:00N 50°53' W 001°24'0 0.0
2018-Aug-11 15:29N 50°53' W 001°24'0 0.0
2018-Aug-11 14:56N 50°53' W 001°24'0 0.0
2018-Aug-11 14:26N 50°53' W 001°24'0 0.0
2018-Aug-11 14:00N 50°53' W 001°24'0 0.0
2018-Aug-11 13:26N 50°53' W 001°24'0 0.0
2018-Aug-11 12:59N 50°53' W 001°24'0 0.0
2018-Aug-11 12:29N 50°53' W 001°24'0 0.0
2018-Aug-11 11:59N 50°53' W 001°24'0 0.0
2018-Aug-11 11:11N 50°53' W 001°24'0 0.0
2018-Aug-11 10:59N 50°53' W 001°24'0 0.0
2018-Aug-11 10:29N 50°53' W 001°24'0 0.0
2018-Aug-11 09:59N 50°53' W 001°24'0 0.0
2018-Aug-11 09:29N 50°53' W 001°24'0 0.0
2018-Aug-11 08:52N 50°53' W 001°24'0 0.0
2018-Aug-11 08:28N 50°53' W 001°24'0 0.0
2018-Aug-11 07:58N 50°53' W 001°24'0 0.0
2018-Aug-11 07:28N 50°53' W 001°24'0 0.0
2018-Aug-11 06:58N 50°53' W 001°24'0 0.0
2018-Aug-11 06:30N 50°53' W 001°24'0 0.0
2018-Aug-11 06:00N 50°53' W 001°24'0 0.1
2018-Aug-11 05:30N 50°53' W 001°24'1 2.8
2018-Aug-11 05:01N 50°52' W 001°23'4 8.7
2018-Aug-11 04:31N 50°49' W 001°18'4 7.3
2018-Aug-11 04:00N 50°47' W 001°14'917.4
2018-Aug-11 03:30N 50°43' W 001°01'713.2
2018-Aug-11 03:00N 50°38' W 000°55'713.8
2018-Aug-11 02:30N 50°36' W 000°44'1019.9
2018-Aug-11 02:00N 50°34' W 000°29'1222.0
2018-Aug-11 01:29N 50°32' W 000°11'1121.6
2018-Aug-11 00:58N 50°32' E 000°06'1021.7
2018-Aug-11 00:30N 50°35' E 000°21'1121.1
2018-Aug-11 00:00N 50°38' E 000°37'1020.3
2018-Aug-10 23:30N 50°44' E 000°50'1019.3
2018-Aug-10 23:00N 50°49' E 001°02'918.9
2018-Aug-10 22:30N 50°56' E 001°13'918.2
2018-Aug-10 22:00N 51°02' E 001°23'815.7
2018-Aug-10 21:30N 51°07' E 001°34'1019.3
2018-Aug-10 21:00N 51°14' E 001°45'1020.0
2018-Aug-10 20:30N 51°23' E 001°51'1019.4
2018-Aug-10 20:00N 51°32' E 001°57'1019.5
2018-Aug-10 19:30N 51°41' E 002°04'1019.7
2018-Aug-10 19:00N 51°50' E 002°09'1122.1
2018-Aug-10 18:30N 52°01' E 002°13'9821.8
2018-Aug-10 14:00N 53°36' E 002°54'15819.7 200 / 211015.8 5.4 17.010.518.0
2018-Aug-10 06:00N 56°12' E 003°36'7819.6 290 / 261009.610.8 15.7 9.618.0
2018-Aug-10 02:00N 57°30' E 003°48'18620.6 330 / 161008.110.8 16.512.0
2018-Aug-09 16:59N 60°35' E 004°22'918.7
2018-Aug-09 16:30N 60°42' E 004°32'714.0
2018-Aug-09 15:59N 60°43' E 004°47'815.5
2018-Aug-09 15:30N 60°36' E 004°54'1019.3
2018-Aug-09 15:00N 60°27' E 005°01'612.8
2018-Aug-09 14:29N 60°23' E 005°11'4 7.6
2018-Aug-09 13:59N 60°24' E 005°19'0 0.0
2018-Aug-09 13:28N 60°24' E 005°19'0 0.0
2018-Aug-09 12:58N 60°24' E 005°19'0 0.0
2018-Aug-09 12:28N 60°24' E 005°19'0 0.0
2018-Aug-09 11:58N 60°24' E 005°19'0 0.0
2018-Aug-09 11:28N 60°24' E 005°19'0 0.0
2018-Aug-09 10:58N 60°24' E 005°19'0 0.0
2018-Aug-09 10:28N 60°24' E 005°19'0 0.0
2018-Aug-09 09:58N 60°24' E 005°19'0 0.0
2018-Aug-09 09:28N 60°24' E 005°19'0 0.0
2018-Aug-09 08:58N 60°24' E 005°19'0 0.0
2018-Aug-09 08:28N 60°24' E 005°19'0 0.0
2018-Aug-09 07:58N 60°24' E 005°19'0 0.0
2018-Aug-09 07:28N 60°24' E 005°19'0 0.0
2018-Aug-09 06:58N 60°24' E 005°19'0 0.0
2018-Aug-09 06:28N 60°24' E 005°19'0 0.0
2018-Aug-09 05:58N 60°24' E 005°19'0 0.0
2018-Aug-09 05:30N 60°24' E 005°19'0 0.0
2018-Aug-09 05:00N 60°24' E 005°19'0 0.3
2018-Aug-09 04:30N 60°24' E 005°19'3 5.9
2018-Aug-09 04:00N 60°24' E 005°13'5 9.6
2018-Aug-09 03:30N 60°25' E 005°04'715.0
2018-Aug-09 03:00N 60°32' E 004°57'714.6
2018-Aug-09 02:30N 60°38' E 004°52'713.0
2018-Aug-09 02:00N 60°44' E 004°45'612.6
2018-Aug-09 01:30N 60°46' E 004°32'612.4
2018-Aug-09 01:00N 60°50' E 004°23'713.8
2018-Aug-09 00:31N 60°56' E 004°17'7412.6
2018-Aug-08 18:35N 62°11' E 004°28'113.7
2018-Aug-08 18:30N 62°11' E 004°30'815.2
2018-Aug-08 18:00N 62°16' E 004°43'917.6
2018-Aug-08 17:30N 62°21' E 004°59'917.0
2018-Aug-08 16:59N 62°26' E 005°15'816.4
2018-Aug-08 16:30N 62°28' E 005°31'5 9.6
2018-Aug-08 16:00N 62°27' E 005°42'816.0
2018-Aug-08 15:31N 62°27' E 005°58'611.4
2018-Aug-08 15:00N 62°28' E 006°11'1 1.0
2018-Aug-08 14:25N 62°28' E 006°09'0 0.0
2018-Aug-08 13:58N 62°28' E 006°09'0 0.0
2018-Aug-08 13:28N 62°28' E 006°09'0 0.0
2018-Aug-08 12:57N 62°28' E 006°09'0 0.0
2018-Aug-08 12:27N 62°28' E 006°09'0 0.0
2018-Aug-08 11:59N 62°28' E 006°09'0 0.0
2018-Aug-08 11:30N 62°28' E 006°09'0 0.0
2018-Aug-08 11:00N 62°28' E 006°09'0 0.0
2018-Aug-08 10:27N 62°28' E 006°09'0 0.0
2018-Aug-08 09:56N 62°28' E 006°09'0 0.0
2018-Aug-08 09:29N 62°28' E 006°09'0 0.0
2018-Aug-08 08:59N 62°28' E 006°09'0 0.0
2018-Aug-08 08:23N 62°28' E 006°09'0 0.0
2018-Aug-08 07:59N 62°28' E 006°09'0 0.0
2018-Aug-08 07:29N 62°28' E 006°09'0 0.0
2018-Aug-08 06:58N 62°28' E 006°09'0 0.0
2018-Aug-08 06:30N 62°28' E 006°09'0 0.0
2018-Aug-08 06:00N 62°28' E 006°09'0 0.0
2018-Aug-08 05:29N 62°28' E 006°09'0 0.2
2018-Aug-08 05:00N 62°28' E 006°09'1 2.2
2018-Aug-08 04:30N 62°27' E 006°09'5 9.6
2018-Aug-08 04:00N 62°27' E 005°58'4 8.9
2018-Aug-08 03:30N 62°28' E 005°49'5 9.4
2018-Aug-08 02:59N 62°31' E 005°40'4 9.1
2018-Aug-08 02:30N 62°31' E 005°31'4 7.4
2018-Aug-08 02:00N 62°31' E 005°23'5320.7
2018-Aug-08 02:00N 62°30' E 005°12'1 2.6 020 / 151004.9 14.011.2
2018-Aug-08 01:30N 62°31' E 005°13'5 9.3
2018-Aug-08 01:00N 62°31' E 005°03'22 8.6
2018-Aug-07 22:28N 62°14' E 004°33'4 8.9
2018-Aug-07 22:00N 62°10' E 004°29'4 8.2
2018-Aug-07 21:30N 62°07' E 004°32'610.9
2018-Aug-07 21:00N 62°03' E 004°41'714.3
2018-Aug-07 20:30N 61°59' E 004°54'714.0
2018-Aug-07 19:59N 61°55' E 005°06'613.4
2018-Aug-07 19:30N 61°54' E 005°20'612.8
2018-Aug-07 19:00N 61°55' E 005°34'611.9
2018-Aug-07 18:29N 61°52' E 005°45'612.9
2018-Aug-07 18:00N 61°52' E 005°59'713.5
2018-Aug-07 17:30N 61°51' E 006°13'713.2
2018-Aug-07 17:00N 61°49' E 006°27'6 0.6
2018-Aug-07 05:33N 61°53' E 006°38'412.3
2018-Aug-07 05:13N 61°50' E 006°32'314.4
2018-Aug-07 05:00N 61°49' E 006°25'816.6
2018-Aug-07 04:30N 61°51' E 006°08'816.8
2018-Aug-07 04:00N 61°51' E 005°50'815.1
2018-Aug-07 03:30N 61°54' E 005°36'917.1
2018-Aug-07 03:00N 61°54' E 005°18'815.4
2018-Aug-07 02:30N 61°56' E 005°02'714.0
2018-Aug-07 02:00N 61°59' E 004°48'817.0
2018-Aug-07 01:30N 61°54' E 004°33'918.1
2018-Aug-07 01:00N 61°45' E 004°25'32066.4
2018-Aug-07 01:00N 61°42' E 004°24'12117.9 230 / 171008.710.8 17.014.4
2018-Aug-06 18:13N 59°41' E 004°39'418.6
2018-Aug-06 18:00N 59°37' E 004°43'918.7
2018-Aug-06 17:30N 59°29' E 004°51'918.3
2018-Aug-06 16:59N 59°20' E 004°59'918.6
2018-Aug-06 16:30N 59°12' E 005°03'816.6
2018-Aug-06 16:01N 59°07' E 005°16'917.4
2018-Aug-06 15:30N 59°05' E 005°33'713.8
2018-Aug-06 15:00N 58°60' E 005°42'1 2.7
2018-Aug-06 14:31N 58°58' E 005°44'0 0.0
2018-Aug-06 14:01N 58°58' E 005°44'0 0.3
2018-Aug-06 13:47N 58°58' E 005°44'0 0.2
2018-Aug-06 13:31N 58°58' E 005°44'036.4
2018-Aug-06 13:30N 58°58' E 005°44'0 0.1
2018-Aug-06 13:01N 58°58' E 005°44'0 0.0
2018-Aug-06 12:31N 58°58' E 005°44'0 0.0
2018-Aug-06 12:00N 58°58' E 005°44'0 0.0
2018-Aug-06 11:31N 58°58' E 005°44'0 0.0
2018-Aug-06 11:01N 58°58' E 005°44'0 0.0
2018-Aug-06 10:31N 58°58' E 005°44'0 0.0
2018-Aug-06 10:01N 58°58' E 005°44'0 0.0
2018-Aug-06 09:30N 58°58' E 005°44'0 0.0
2018-Aug-06 09:00N 58°58' E 005°44'0 0.0
2018-Aug-06 08:30N 58°58' E 005°44'0 0.0
2018-Aug-06 08:00N 58°58' E 005°44'0 0.0
2018-Aug-06 07:30N 58°58' E 005°44'0 0.0
2018-Aug-06 07:00N 58°58' E 005°44'0 0.0
2018-Aug-06 06:28N 58°58' E 005°44'0 0.0
2018-Aug-06 05:58N 58°58' E 005°44'0 0.1
2018-Aug-06 05:31N 58°59' E 005°44'1 2.6
2018-Aug-06 05:01N 58°60' E 005°42'5 9.7
2018-Aug-06 04:30N 59°03' E 005°35'611.2
2018-Aug-06 04:00N 58°57' E 005°33'713.5
2018-Aug-06 03:30N 58°51' E 005°30'714.2
2018-Aug-06 03:00N 58°45' E 005°23'918.0
2018-Aug-06 02:30N 58°36' E 005°18'918.2
2018-Aug-06 02:00N 58°28' E 005°12'16218.0
2018-Aug-05 17:00N 55°48' E 004°18'6923.0 280 / 151020.710.8 17.613.219.2
2018-Aug-05 14:00N 54°42' E 003°42'3716.7 280 / 101022.510.8 18.514.219.0
2018-Aug-05 11:46N 54°06' E 003°30'620.7
2018-Aug-05 11:30N 54°00' E 003°28'2320.0
2018-Aug-05 10:22N 53°40' E 003°09'820.8
2018-Aug-05 10:00N 53°34' E 003°03'1121.0
2018-Aug-05 09:30N 53°24' E 002°55'1121.2
2018-Aug-05 09:00N 53°15' E 002°47'1121.3
2018-Aug-05 08:30N 53°05' E 002°39'1121.4
2018-Aug-05 08:00N 52°55' E 002°38'1121.5
2018-Aug-05 07:30N 52°44' E 002°41'1121.6
2018-Aug-05 07:00N 52°33' E 002°42'1121.3
2018-Aug-05 06:30N 52°23' E 002°43'1121.1
2018-Aug-05 06:00N 52°12' E 002°43'1021.0
2018-Aug-05 05:30N 52°02' E 002°42'1020.3
2018-Aug-05 05:00N 51°52' E 002°38'1020.6
2018-Aug-05 04:30N 51°43' E 002°30'1020.4
2018-Aug-05 04:00N 51°35' E 002°19'10678.8
2018-Aug-05 04:00N 51°42' E 002°30'2040.2 050 / 151023.510.8 18.115.419.1
2018-Aug-05 03:30N 51°27' E 002°10'918.6
2018-Aug-05 03:00N 51°18' E 002°08'1019.3
2018-Aug-05 02:30N 51°10' E 001°58'918.8
2018-Aug-05 02:00N 51°07' E 001°45'8606.8
2018-Aug-05 02:00N 51°00' E 001°36'2 3.3 050 / 151023.810.8 18.015.518.0
2018-Aug-05 01:30N 50°60' E 001°33'918.4
2018-Aug-05 01:00N 50°53' E 001°25'918.8
2018-Aug-05 00:30N 50°43' E 001°21'918.7
2018-Aug-05 00:00N 50°37' E 001°11'919.0
2018-Aug-04 23:30N 50°31' E 000°58'1019.1
2018-Aug-04 23:00N 50°29' E 000°44'1018.9
2018-Aug-04 22:30N 50°26' E 000°30'1118.8
2018-Aug-04 21:57N 50°23' E 000°14'918.5
2018-Aug-04 21:27N 50°21' W 000°00'  
Track history (hours):
 
Tides and Currents Weather Stations Pressure Air Temp Water Temp Dewpoint Dewpoint Depression Visibility Wind Speed Wind Dir Waves Ship Positions

Azure

Last reported at 2018-Aug-14 21:00 UTC. Time now 2018-Aug-14 21:10 UTC.
Position N 35°56' W 005°29'.

Length 289 m; draft 8.7 m.

Type: Passenger vessel. MMSI: 310610000.

Date/timePositionNaut miles runAvg speedWind from/ knotsBaromVisibWave heightAir tempDewpointWater temp
2018-Aug-14 21:00N 35°56' W 005°29'2618.4
2018-Aug-14 19:36N 35°54' W 006°01'319.9
2018-Aug-14 19:26N 35°54' W 006°05'919.6
2018-Aug-14 19:00N 35°55' W 006°16'3029.9
2018-Aug-14 18:00N 36°24' W 006°24'8 6.0 260 / 131015.6 24.018.524.0
2018-Aug-14 16:39N 36°32' W 006°22'214.9
2018-Aug-14 16:30N 36°33' W 006°20'2 0.2
2018-Aug-14 06:29N 36°32' W 006°17'10 7.7
2018-Aug-14 05:09N 36°34' W 006°30'317.9
2018-Aug-14 04:59N 36°34' W 006°34'1018.3
2018-Aug-14 04:27N 36°33' W 006°46'4018.3
2018-Aug-14 02:16N 36°32' W 007°35'518.1
2018-Aug-14 01:58N 36°32' W 007°42'918.3
2018-Aug-14 01:28N 36°32' W 007°53'1018.7
2018-Aug-14 00:56N 36°32' W 008°06'918.7
2018-Aug-14 00:29N 36°31' W 008°16'918.4
2018-Aug-14 00:00N 36°31' W 008°27'1018.1
2018-Aug-13 23:26N 36°32' W 008°40'2918.6
2018-Aug-13 21:54N 36°35' W 009°16'819.5
2018-Aug-13 21:29N 36°40' W 009°23'918.8
2018-Aug-13 21:00N 36°47' W 009°31'918.8
2018-Aug-13 20:30N 36°55' W 009°36'1019.3
2018-Aug-13 19:59N 37°05' W 009°37'919.0
2018-Aug-13 19:30N 37°14' W 009°39'919.0
2018-Aug-13 19:00N 37°24' W 009°42'1018.9
2018-Aug-13 18:30N 37°33' W 009°44'919.0
2018-Aug-13 18:00N 37°42' W 009°47'918.7
2018-Aug-13 17:30N 37°51' W 009°50'918.9
2018-Aug-13 17:00N 38°00' W 009°52'3214.4
2018-Aug-13 17:00N 38°00' W 009°48'1122.5 340 / 191017.5 27.016.620.0
2018-Aug-13 16:30N 38°10' W 009°55'1021.0
2018-Aug-13 16:00N 38°20' W 009°58'1121.1
2018-Aug-13 15:30N 38°30' W 010°01'1121.3
2018-Aug-13 14:59N 38°41' W 010°04'1020.8
2018-Aug-13 14:30N 38°51' W 010°05'1020.7
2018-Aug-13 14:00N 39°01' W 010°06'1020.3
2018-Aug-13 13:30N 39°11' W 010°05'1420.7
2018-Aug-13 12:49N 39°26' W 010°04'16023.5
2018-Aug-13 06:00N 42°06' W 010°00'7214.4 310 / 181018.2 18.015.519.0
2018-Aug-13 01:00N 43°18' W 010°00'15522.2 290 / 161017.210.8 18.516.021.0
2018-Aug-12 18:00N 45°30' W 008°06'7114.2 270 / 271013.2 20.015.820.0
2018-Aug-12 13:00N 46°30' W 007°12'12322.7 270 / 251015.110.8 19.015.619.0
2018-Aug-12 07:33N 48°17' W 005°41'821.1
2018-Aug-12 07:09N 48°24' W 005°33'320.7
2018-Aug-12 06:59N 48°26' W 005°30'1019.9
2018-Aug-12 06:30N 48°34' W 005°21'918.4
2018-Aug-12 06:00N 48°41' W 005°12'917.8
2018-Aug-12 05:30N 48°47' W 005°02'917.3
2018-Aug-12 05:00N 48°52' W 004°51'815.3
2018-Aug-12 04:27N 48°58' W 004°42'2515.8
2018-Aug-12 02:54N 49°14' W 004°13'1017.5
2018-Aug-12 02:20N 49°20' W 004°02'818.5
2018-Aug-12 01:55N 49°25' W 003°53'1019.5
2018-Aug-12 01:24N 49°32' W 003°42'1220.1
2018-Aug-12 00:48N 49°40' W 003°28'620.3
2018-Aug-12 00:30N 49°44' W 003°21'1020.1
2018-Aug-12 00:00N 49°51' W 003°09'1019.8
2018-Aug-11 23:30N 49°57' W 002°58'1019.4
2018-Aug-11 23:01N 50°00' W 002°44'4016.7
2018-Aug-11 20:39N 50°17' W 001°48'415.4
2018-Aug-11 20:22N 50°19' W 001°42'1115.3
2018-Aug-11 19:41N 50°23' W 001°27'515.4
2018-Aug-11 19:21N 50°26' W 001°20'515.1
2018-Aug-11 19:01N 50°28' W 001°13'815.3
2018-Aug-11 18:30N 50°32' W 001°03'815.8
2018-Aug-11 18:00N 50°40' W 000°58'511.0
2018-Aug-11 17:31N 50°44' W 001°04'918.3
2018-Aug-11 17:00N 50°47' W 001°18'4 8.8
2018-Aug-11 16:30N 50°51' W 001°20'4 7.4
2018-Aug-11 16:00N 50°53' W 001°24'0 0.0
2018-Aug-11 15:29N 50°53' W 001°24'0 0.0
2018-Aug-11 14:56N 50°53' W 001°24'0 0.0
2018-Aug-11 14:26N 50°53' W 001°24'0 0.0
2018-Aug-11 14:00N 50°53' W 001°24'0 0.0
2018-Aug-11 13:26N 50°53' W 001°24'0 0.0
2018-Aug-11 12:59N 50°53' W 001°24'0 0.0
2018-Aug-11 12:29N 50°53' W 001°24'0 0.0
2018-Aug-11 11:59N 50°53' W 001°24'0 0.0
2018-Aug-11 11:11N 50°53' W 001°24'0 0.0
2018-Aug-11 10:59N 50°53' W 001°24'0 0.0
2018-Aug-11 10:29N 50°53' W 001°24'0 0.0
2018-Aug-11 09:59N 50°53' W 001°24'0 0.0
2018-Aug-11 09:29N 50°53' W 001°24'0 0.0
2018-Aug-11 08:52N 50°53' W 001°24'0 0.0
2018-Aug-11 08:28N 50°53' W 001°24'0 0.0
2018-Aug-11 07:58N 50°53' W 001°24'0 0.0
2018-Aug-11 07:28N 50°53' W 001°24'0 0.0
2018-Aug-11 06:58N 50°53' W 001°24'0 0.0
2018-Aug-11 06:30N 50°53' W 001°24'0 0.0
2018-Aug-11 06:00N 50°53' W 001°24'0 0.1
2018-Aug-11 05:30N 50°53' W 001°24'1 2.8
2018-Aug-11 05:01N 50°52' W 001°23'4 8.7
2018-Aug-11 04:31N 50°49' W 001°18'4 7.3
2018-Aug-11 04:00N 50°47' W 001°14'917.4
2018-Aug-11 03:30N 50°43' W 001°01'713.2
2018-Aug-11 03:00N 50°38' W 000°55'713.8
2018-Aug-11 02:30N 50°36' W 000°44'1019.9
2018-Aug-11 02:00N 50°34' W 000°29'1222.0
2018-Aug-11 01:29N 50°32' W 000°11'1121.6
2018-Aug-11 00:58N 50°32' E 000°06'1021.7
2018-Aug-11 00:30N 50°35' E 000°21'1121.1
2018-Aug-11 00:00N 50°38' E 000°37'1020.3
2018-Aug-10 23:30N 50°44' E 000°50'1019.3
2018-Aug-10 23:00N 50°49' E 001°02'918.9
2018-Aug-10 22:30N 50°56' E 001°13'918.2
2018-Aug-10 22:00N 51°02' E 001°23'815.7
2018-Aug-10 21:30N 51°07' E 001°34'1019.3
2018-Aug-10 21:00N 51°14' E 001°45'1020.0
2018-Aug-10 20:30N 51°23' E 001°51'1019.4
2018-Aug-10 20:00N 51°32' E 001°57'1019.5
2018-Aug-10 19:30N 51°41' E 002°04'1019.7
2018-Aug-10 19:00N 51°50' E 002°09'1122.1
2018-Aug-10 18:30N 52°01' E 002°13'9821.8
2018-Aug-10 14:00N 53°36' E 002°54'15819.7 200 / 211015.8 5.4 17.010.518.0
2018-Aug-10 06:00N 56°12' E 003°36'7819.6 290 / 261009.610.8 15.7 9.618.0
2018-Aug-10 02:00N 57°30' E 003°48'18620.6 330 / 161008.110.8 16.512.0
2018-Aug-09 16:59N 60°35' E 004°22'918.7
2018-Aug-09 16:30N 60°42' E 004°32'714.0
2018-Aug-09 15:59N 60°43' E 004°47'815.5
2018-Aug-09 15:30N 60°36' E 004°54'1019.3
2018-Aug-09 15:00N 60°27' E 005°01'612.8
2018-Aug-09 14:29N 60°23' E 005°11'4 7.6
2018-Aug-09 13:59N 60°24' E 005°19'0 0.0
2018-Aug-09 13:28N 60°24' E 005°19'0 0.0
2018-Aug-09 12:58N 60°24' E 005°19'0 0.0
2018-Aug-09 12:28N 60°24' E 005°19'0 0.0
2018-Aug-09 11:58N 60°24' E 005°19'0 0.0
2018-Aug-09 11:28N 60°24' E 005°19'0 0.0
2018-Aug-09 10:58N 60°24' E 005°19'0 0.0
2018-Aug-09 10:28N 60°24' E 005°19'0 0.0
2018-Aug-09 09:58N 60°24' E 005°19'0 0.0
2018-Aug-09 09:28N 60°24' E 005°19'0 0.0
2018-Aug-09 08:58N 60°24' E 005°19'0 0.0
2018-Aug-09 08:28N 60°24' E 005°19'0 0.0
2018-Aug-09 07:58N 60°24' E 005°19'0 0.0
2018-Aug-09 07:28N 60°24' E 005°19'0 0.0
2018-Aug-09 06:58N 60°24' E 005°19'0 0.0
2018-Aug-09 06:28N 60°24' E 005°19'0 0.0
2018-Aug-09 05:58N 60°24' E 005°19'0 0.0
2018-Aug-09 05:30N 60°24' E 005°19'0 0.0
2018-Aug-09 05:00N 60°24' E 005°19'0 0.3
2018-Aug-09 04:30N 60°24' E 005°19'3 5.9
2018-Aug-09 04:00N 60°24' E 005°13'5 9.6
2018-Aug-09 03:30N 60°25' E 005°04'715.0
2018-Aug-09 03:00N 60°32' E 004°57'714.6
2018-Aug-09 02:30N 60°38' E 004°52'713.0
2018-Aug-09 02:00N 60°44' E 004°45'612.6
2018-Aug-09 01:30N 60°46' E 004°32'612.4
2018-Aug-09 01:00N 60°50' E 004°23'713.8
2018-Aug-09 00:31N 60°56' E 004°17'7412.6
2018-Aug-08 18:35N 62°11' E 004°28'113.7
2018-Aug-08 18:30N 62°11' E 004°30'815.2
2018-Aug-08 18:00N 62°16' E 004°43'917.6
2018-Aug-08 17:30N 62°21' E 004°59'917.0
2018-Aug-08 16:59N 62°26' E 005°15'816.4
2018-Aug-08 16:30N 62°28' E 005°31'5 9.6
2018-Aug-08 16:00N 62°27' E 005°42'816.0
2018-Aug-08 15:31N 62°27' E 005°58'611.4
2018-Aug-08 15:00N 62°28' E 006°11'1 1.0
2018-Aug-08 14:25N 62°28' E 006°09'0 0.0
2018-Aug-08 13:58N 62°28' E 006°09'0 0.0
2018-Aug-08 13:28N 62°28' E 006°09'0 0.0
2018-Aug-08 12:57N 62°28' E 006°09'0 0.0
2018-Aug-08 12:27N 62°28' E 006°09'0 0.0
2018-Aug-08 11:59N 62°28' E 006°09'0 0.0
2018-Aug-08 11:30N 62°28' E 006°09'0 0.0
2018-Aug-08 11:00N 62°28' E 006°09'0 0.0
2018-Aug-08 10:27N 62°28' E 006°09'0 0.0
2018-Aug-08 09:56N 62°28' E 006°09'0 0.0
2018-Aug-08 09:29N 62°28' E 006°09'0 0.0
2018-Aug-08 08:59N 62°28' E 006°09'0 0.0
2018-Aug-08 08:23N 62°28' E 006°09'0 0.0
2018-Aug-08 07:59N 62°28' E 006°09'0 0.0
2018-Aug-08 07:29N 62°28' E 006°09'0 0.0
2018-Aug-08 06:58N 62°28' E 006°09'0 0.0
2018-Aug-08 06:30N 62°28' E 006°09'0 0.0
2018-Aug-08 06:00N 62°28' E 006°09'0 0.0
2018-Aug-08 05:29N 62°28' E 006°09'0 0.2
2018-Aug-08 05:00N 62°28' E 006°09'1 2.2
2018-Aug-08 04:30N 62°27' E 006°09'5 9.6
2018-Aug-08 04:00N 62°27' E 005°58'4 8.9
2018-Aug-08 03:30N 62°28' E 005°49'5 9.4
2018-Aug-08 02:59N 62°31' E 005°40'4 9.1
2018-Aug-08 02:30N 62°31' E 005°31'4 7.4
2018-Aug-08 02:00N 62°31' E 005°23'5320.7
2018-Aug-08 02:00N 62°30' E 005°12'1 2.6 020 / 151004.9 14.011.2
2018-Aug-08 01:30N 62°31' E 005°13'5 9.3
2018-Aug-08 01:00N 62°31' E 005°03'22 8.6
2018-Aug-07 22:28N 62°14' E 004°33'4 8.9
2018-Aug-07 22:00N 62°10' E 004°29'4 8.2
2018-Aug-07 21:30N 62°07' E 004°32'610.9
2018-Aug-07 21:00N 62°03' E 004°41'714.3
2018-Aug-07 20:30N 61°59' E 004°54'714.0
2018-Aug-07 19:59N 61°55' E 005°06'613.4
2018-Aug-07 19:30N 61°54' E 005°20'612.8
2018-Aug-07 19:00N 61°55' E 005°34'611.9
2018-Aug-07 18:29N 61°52' E 005°45'612.9
2018-Aug-07 18:00N 61°52' E 005°59'713.5
2018-Aug-07 17:30N 61°51' E 006°13'713.2
2018-Aug-07 17:00N 61°49' E 006°27'6 0.6
2018-Aug-07 05:33N 61°53' E 006°38'412.3
2018-Aug-07 05:13N 61°50' E 006°32'314.4
2018-Aug-07 05:00N 61°49' E 006°25'816.6
2018-Aug-07 04:30N 61°51' E 006°08'816.8
2018-Aug-07 04:00N 61°51' E 005°50'815.1
2018-Aug-07 03:30N 61°54' E 005°36'917.1
2018-Aug-07 03:00N 61°54' E 005°18'815.4
2018-Aug-07 02:30N 61°56' E 005°02'714.0
2018-Aug-07 02:00N 61°59' E 004°48'817.0
2018-Aug-07 01:30N 61°54' E 004°33'918.1
2018-Aug-07 01:00N 61°45' E 004°25'32066.4
2018-Aug-07 01:00N 61°42' E 004°24'12117.9 230 / 171008.710.8 17.014.4
2018-Aug-06 18:13N 59°41' E 004°39'418.6
2018-Aug-06 18:00N 59°37' E 004°43'918.7
2018-Aug-06 17:30N 59°29' E 004°51'918.3
2018-Aug-06 16:59N 59°20' E 004°59'918.6
2018-Aug-06 16:30N 59°12' E 005°03'816.6
2018-Aug-06 16:01N 59°07' E 005°16'917.4
2018-Aug-06 15:30N 59°05' E 005°33'713.8
2018-Aug-06 15:00N 58°60' E 005°42'1 2.7
2018-Aug-06 14:31N 58°58' E 005°44'0 0.0
2018-Aug-06 14:01N 58°58' E 005°44'0 0.3
2018-Aug-06 13:47N 58°58' E 005°44'0 0.2
2018-Aug-06 13:31N 58°58' E 005°44'036.4
2018-Aug-06 13:30N 58°58' E 005°44'0 0.1
2018-Aug-06 13:01N 58°58' E 005°44'0 0.0
2018-Aug-06 12:31N 58°58' E 005°44'0 0.0
2018-Aug-06 12:00N 58°58' E 005°44'0 0.0
2018-Aug-06 11:31N 58°58' E 005°44'0 0.0
2018-Aug-06 11:01N 58°58' E 005°44'0 0.0
2018-Aug-06 10:31N 58°58' E 005°44'0 0.0
2018-Aug-06 10:01N 58°58' E 005°44'0 0.0
2018-Aug-06 09:30N 58°58' E 005°44'0 0.0
2018-Aug-06 09:00N 58°58' E 005°44'0 0.0
2018-Aug-06 08:30N 58°58' E 005°44'0 0.0
2018-Aug-06 08:00N 58°58' E 005°44'0 0.0
2018-Aug-06 07:30N 58°58' E 005°44'0 0.0
2018-Aug-06 07:00N 58°58' E 005°44'0 0.0
2018-Aug-06 06:28N 58°58' E 005°44'0 0.0
2018-Aug-06 05:58N 58°58' E 005°44'0 0.1
2018-Aug-06 05:31N 58°59' E 005°44'1 2.6
2018-Aug-06 05:01N 58°60' E 005°42'5 9.7
2018-Aug-06 04:30N 59°03' E 005°35'611.2
2018-Aug-06 04:00N 58°57' E 005°33'713.5
2018-Aug-06 03:30N 58°51' E 005°30'714.2
2018-Aug-06 03:00N 58°45' E 005°23'918.0
2018-Aug-06 02:30N 58°36' E 005°18'918.2
2018-Aug-06 02:00N 58°28' E 005°12'16218.0
2018-Aug-05 17:00N 55°48' E 004°18'6923.0 280 / 151020.710.8 17.613.219.2
2018-Aug-05 14:00N 54°42' E 003°42'3716.7 280 / 101022.510.8 18.514.219.0
2018-Aug-05 11:46N 54°06' E 003°30'620.7
2018-Aug-05 11:30N 54°00' E 003°28'2320.0
2018-Aug-05 10:22N 53°40' E 003°09'820.8
2018-Aug-05 10:00N 53°34' E 003°03'1121.0
2018-Aug-05 09:30N 53°24' E 002°55'1121.2
2018-Aug-05 09:00N 53°15' E 002°47'1121.3
2018-Aug-05 08:30N 53°05' E 002°39'1121.4
2018-Aug-05 08:00N 52°55' E 002°38'1121.5
2018-Aug-05 07:30N 52°44' E 002°41'1121.6
2018-Aug-05 07:00N 52°33' E 002°42'1121.3
2018-Aug-05 06:30N 52°23' E 002°43'1121.1
2018-Aug-05 06:00N 52°12' E 002°43'1021.0
2018-Aug-05 05:30N 52°02' E 002°42'1020.3
2018-Aug-05 05:00N 51°52' E 002°38'1020.6
2018-Aug-05 04:30N 51°43' E 002°30'1020.4
2018-Aug-05 04:00N 51°35' E 002°19'10678.8
2018-Aug-05 04:00N 51°42' E 002°30'2040.2 050 / 151023.510.8 18.115.419.1
2018-Aug-05 03:30N 51°27' E 002°10'918.6
2018-Aug-05 03:00N 51°18' E 002°08'1019.3
2018-Aug-05 02:30N 51°10' E 001°58'918.8
2018-Aug-05 02:00N 51°07' E 001°45'8606.8
2018-Aug-05 02:00N 51°00' E 001°36'2 3.3 050 / 151023.810.8 18.015.518.0
2018-Aug-05 01:30N 50°60' E 001°33'918.4
2018-Aug-05 01:00N 50°53' E 001°25'918.8
2018-Aug-05 00:30N 50°43' E 001°21'918.7
2018-Aug-05 00:00N 50°37' E 001°11'919.0
2018-Aug-04 23:30N 50°31' E 000°58'1019.1
2018-Aug-04 23:00N 50°29' E 000°44'1018.9
2018-Aug-04 22:30N 50°26' E 000°30'1118.8
2018-Aug-04 21:57N 50°23' E 000°14'918.5
2018-Aug-04 21:27N 50°21' W 000°00'  

Dump ship's entire track history